Time;durP1;ratioP1;P1;durP2;ratioP2;P2;SDS_P1;SDS_P2;PMS_P1;PMS_P2;Temp;Humidity;BMP_temperature;BMP_pressure;BME280_temperature;BME280_humidity;BME280_pressure;Samples;Min_cycle;Max_cycle;Signal;HPM_P1;HPM_P2
2022/07/22 00:01:24;;;;;;;6.15;3.42;;;;;;;17.51;72.06;99939.98;1603381;88;21244;-55
2022/07/22 00:04:31;;;;;;;8.25;4.05;;;;;;;17.52;72.11;99953.29;1648521;87;21231;-54
2022/07/22 00:07:38;;;;;;;4.92;3.70;;;;;;;17.52;72.15;99951.91;1632439;86;21287;-56
2022/07/22 00:10:45;;;;;;;5.03;3.40;;;;;;;17.52;72.19;99956.05;1648309;87;21266;-55
2022/07/22 00:13:51;;;;;;;6.42;4.08;;;;;;;17.53;72.27;99949.43;1660081;86;21229;-55
2022/07/22 00:16:57;;;;;;;4.17;3.33;;;;;;;17.53;72.30;99954.97;1660656;85;21292;-55
2022/07/22 00:20:04;;;;;;;4.65;3.67;;;;;;;17.53;72.33;99950.28;1655503;86;21254;-56
2022/07/22 00:23:11;;;;;;;5.05;3.60;;;;;;;17.53;72.38;99949.43;1655515;85;21388;-55
2022/07/22 00:26:19;;;;;;;6.15;3.40;;;;;;;17.53;72.41;99942.52;1660744;85;21300;-56
2022/07/22 00:29:25;;;;;;;8.53;3.83;;;;;;;17.50;72.45;99942.45;1661440;86;21266;-55
2022/07/22 00:32:33;;;;;;;8.90;3.90;;;;;;;17.46;72.46;99938.44;1659897;85;21249;-57
2022/07/22 00:35:39;;;;;;;5.83;4.03;;;;;;;17.43;72.51;99953.23;1660100;86;21226;-57
2022/07/22 00:38:46;;;;;;;6.28;3.80;;;;;;;17.37;72.56;99951.39;1660392;86;21218;-56
2022/07/22 00:41:52;;;;;;;6.65;3.47;;;;;;;17.31;72.55;99950.94;1659851;85;21241;-55
2022/07/22 00:44:58;;;;;;;5.35;3.33;;;;;;;17.24;72.58;99951.53;1635121;87;21275;-56
2022/07/22 00:48:03;;;;;;;5.72;3.52;;;;;;;17.15;72.60;99957.92;1648654;85;21258;-55
2022/07/22 00:51:09;;;;;;;9.85;4.20;;;;;;;17.09;72.70;99958.84;1638708;83;21307;-54
2022/07/22 00:54:17;;;;;;;7.95;3.90;;;;;;;17.07;72.76;99955.97;1658020;86;21282;-55
2022/07/22 00:57:22;;;;;;;4.80;3.70;;;;;;;17.05;72.80;99962.26;1659544;85;21234;-54
2022/07/22 01:00:29;;;;;;;5.72;3.65;;;;;;;17.00;72.87;99963.51;1657795;86;21206;-54
2022/07/22 01:03:35;;;;;;;6.00;3.85;;;;;;;16.95;72.92;99959.19;1637395;87;21295;-54
2022/07/22 01:06:47;;;;;;;5.70;3.95;;;;;;;16.89;72.97;99966.45;1659181;85;21304;-55
2022/07/22 01:09:54;;;;;;;4.97;4.05;;;;;;;16.82;73.03;99960.16;1630327;88;21228;-55
2022/07/22 01:13:00;;;;;;;6.10;3.58;;;;;;;16.76;73.08;99963.80;1648650;85;21223;-55
2022/07/22 01:16:06;;;;;;;5.70;3.52;;;;;;;16.71;73.12;99965.05;1635652;86;21228;-55
2022/07/22 01:19:11;;;;;;;9.85;3.87;;;;;;;16.65;73.14;99971.45;1648917;86;21258;-55
2022/07/22 01:22:17;;;;;;;10.15;4.15;;;;;;;16.57;73.16;99970.89;1636821;86;21327;-55
2022/07/22 01:25:24;;;;;;;6.53;4.03;;;;;;;16.50;73.23;99976.47;1648608;87;21341;-54
2022/07/22 01:28:31;;;;;;;6.10;3.72;;;;;;;16.46;73.31;99974.38;1658717;86;21566;-54
2022/07/22 01:31:37;;;;;;;8.45;4.08;;;;;;;16.41;73.40;99979.17;1658689;85;21309;-54
2022/07/22 01:34:43;;;;;;;5.97;3.92;;;;;;;16.38;73.50;99974.06;1610375;87;21235;-54
2022/07/22 01:37:52;;;;;;;8.08;3.92;;;;;;;16.37;73.61;99973.77;1642239;86;21253;-55
2022/07/22 01:40:58;;;;;;;8.13;4.30;;;;;;;16.36;73.76;99971.52;1658724;85;21348;-54
2022/07/22 01:44:05;;;;;;;11.28;4.22;;;;;;;16.36;73.89;99973.45;1659575;86;21237;-55
2022/07/22 01:47:12;;;;;;;6.22;4.40;;;;;;;16.36;73.98;99981.75;1658757;85;21734;-55
2022/07/22 01:50:12;;;;;;;8.18;4.10;;;;;;;16.35;74.03;99980.89;1659155;85;21399;-54
2022/07/22 01:53:13;;;;;;;6.83;4.17;;;;;;;16.36;74.11;99978.98;1638203;82;21243;-55
2022/07/22 01:56:25;;;;;;;8.70;4.17;;;;;;;16.36;74.18;99982.58;1637064;86;21243;-55
2022/07/22 01:59:33;;;;;;;9.28;4.37;;;;;;;16.36;74.24;99983.95;1648123;87;21262;-54
2022/07/22 02:02:39;;;;;;;10.10;3.80;;;;;;;16.34;74.28;99972.30;1648483;85;21234;-56
2022/07/22 02:05:45;;;;;;;6.87;4.22;;;;;;;16.32;74.32;99973.58;1648036;87;21271;-56
2022/07/22 02:08:52;;;;;;;7.22;4.08;;;;;;;16.31;74.38;99985.19;1648586;86;21226;-54
2022/07/22 02:12:08;;;;;;;8.95;3.92;;;;;;;16.30;74.44;99995.91;1622238;87;21303;-55
2022/07/22 02:15:18;;;;;;;6.22;3.98;;;;;;;16.29;74.51;99992.84;1660494;86;21289;-56
2022/07/22 02:18:28;;;;;;;7.37;3.92;;;;;;;16.30;74.57;99991.76;1660738;86;21682;-55
2022/07/22 02:21:34;;;;;;;5.75;3.95;;;;;;;16.29;74.62;99998.36;1634877;86;21279;-55
2022/07/22 02:24:40;;;;;;;10.08;3.95;;;;;;;16.32;74.69;100003.97;1658400;86;21225;-56
2022/07/22 02:27:49;;;;;;;7.35;4.55;;;;;;;16.33;74.78;100005.67;1636796;86;21314;-55
2022/07/22 02:30:56;;;;;;;6.45;4.12;;;;;;;16.35;74.84;100007.66;1654137;86;21750;-55
2022/07/22 02:34:06;;;;;;;6.08;3.95;;;;;;;16.36;74.90;100000.53;1660628;86;21705;-55
2022/07/22 02:37:15;;;;;;;5.87;4.12;;;;;;;16.39;74.94;100001.46;1636085;86;21247;-55
2022/07/22 02:40:22;;;;;;;4.47;3.83;;;;;;;16.41;74.96;100009.56;1642378;87;21748;-56
2022/07/22 02:43:29;;;;;;;4.42;3.52;;;;;;;16.42;74.95;100006.58;1636502;87;21268;-56
2022/07/22 02:46:37;;;;;;;5.35;3.70;;;;;;;16.46;75.00;100004.77;1655811;85;21624;-54
2022/07/22 02:49:46;;;;;;;9.80;3.98;;;;;;;16.49;75.02;100009.86;1623330;88;21232;-55
2022/07/22 02:52:53;;;;;;;5.62;4.03;;;;;;;16.54;75.08;100009.48;1637473;82;21285;-54
2022/07/22 02:56:00;;;;;;;6.95;4.03;;;;;;;16.59;75.12;100017.95;1638112;85;21218;-54
2022/07/22 02:59:06;;;;;;;9.08;4.00;;;;;;;16.65;75.15;100028.66;1652933;87;21222;-53
2022/07/22 03:02:15;;;;;;;7.83;3.83;;;;;;;16.67;75.12;100027.36;1632363;86;21399;-54
2022/07/22 03:05:31;;;;;;;6.75;4.35;;;;;;;16.69;75.14;100019.70;1662630;86;21202;-54
2022/07/22 03:08:42;;;;;;;5.47;4.20;;;;;;;16.71;75.11;100027.23;1662728;86;21208;-54
2022/07/22 03:11:49;;;;;;;7.42;4.33;;;;;;;16.71;75.11;100030.00;1662368;85;21253;-54
2022/07/22 03:14:58;;;;;;;6.05;4.58;;;;;;;16.74;75.16;100036.98;1632387;88;21377;-54
2022/07/22 03:18:05;;;;;;;8.00;4.70;;;;;;;16.75;75.15;100034.00;1660288;85;21245;-53
2022/07/22 03:21:15;;;;;;;5.53;4.20;;;;;;;16.79;75.20;100047.66;1630898;86;21248;-54
2022/07/22 03:24:22;;;;;;;7.80;5.45;;;;;;;16.81;75.16;100044.71;1652659;87;21330;-55
2022/07/22 03:27:29;;;;;;;7.58;5.17;;;;;;;16.82;75.13;100053.30;1632315;86;21327;-58
2022/07/22 03:30:38;;;;;;;6.97;5.35;;;;;;;16.81;75.09;100057.97;1652670;87;21206;-56
2022/07/22 03:33:45;;;;;;;6.83;5.03;;;;;;;16.82;75.11;100051.39;1645435;86;21214;-54
2022/07/22 03:36:51;;;;;;;7.10;5.42;;;;;;;16.82;75.14;100057.45;1632752;86;21320;-54
2022/07/22 03:39:59;;;;;;;5.67;5.15;;;;;;;16.83;75.14;100055.84;1652955;87;21214;-54
2022/07/22 03:43:07;;;;;;;5.65;4.90;;;;;;;16.86;75.18;100066.45;1632283;86;21252;-55
2022/07/22 03:46:16;;;;;;;9.78;5.87;;;;;;;16.87;75.17;100059.02;1653006;85;21226;-54
2022/07/22 03:49:22;;;;;;;6.15;5.55;;;;;;;16.89;75.20;100062.38;1632447;88;21216;-55
2022/07/22 03:52:31;;;;;;;7.30;5.35;;;;;;;16.90;75.18;100064.09;1662392;85;21794;-55
2022/07/22 03:55:38;;;;;;;7.58;5.97;;;;;;;16.91;75.17;100058.86;1658842;85;21270;-55
2022/07/22 03:58:44;;;;;;;7.12;5.37;;;;;;;16.92;75.16;100066.11;1657983;86;21257;-56
2022/07/22 04:01:53;;;;;;;5.85;4.95;;;;;;;16.93;75.25;100056.20;1658145;85;21257;-55
2022/07/22 04:05:01;;;;;;;7.78;5.78;;;;;;;16.98;75.30;100065.20;1630465;86;21219;-56
2022/07/22 04:08:07;;;;;;;6.62;5.90;;;;;;;17.01;75.28;100064.22;1658329;85;21781;-55
2022/07/22 04:11:17;;;;;;;6.90;6.20;;;;;;;17.02;75.20;100070.58;1657882;85;21869;-56
2022/07/22 04:14:25;;;;;;;8.55;5.85;;;;;;;17.03;75.24;100075.05;1658409;86;21266;-54
2022/07/22 04:17:32;;;;;;;8.00;6.35;;;;;;;17.07;75.23;100077.67;1658120;85;21432;-55
2022/07/22 04:20:40;;;;;;;8.40;6.85;;;;;;;17.08;75.22;100081.59;1630351;88;21240;-56
2022/07/22 04:23:55;;;;;;;7.60;6.15;;;;;;;17.10;75.29;100081.36;1650898;87;21415;-57
2022/07/22 04:27:05;;;;;;;10.53;6.30;;;;;;;17.13;75.33;100083.15;1650887;85;21261;-56
2022/07/22 04:30:16;;;;;;;7.53;5.90;;;;;;;17.18;75.37;100088.00;1650984;87;21360;-56
2022/07/22 04:33:21;;;;;;;9.93;7.12;;;;;;;17.21;75.38;100079.25;1658864;86;21246;-55
2022/07/22 04:36:32;;;;;;;8.05;5.95;;;;;;;17.25;75.42;100080.50;1658046;85;21237;-53
2022/07/22 04:39:42;;;;;;;7.37;6.10;;;;;;;17.29;75.42;100077.58;1643631;86;21205;-56
2022/07/22 04:42:49;;;;;;;8.73;6.50;;;;;;;17.32;75.41;100077.13;1673945;85;21263;-54
2022/07/22 04:45:55;;;;;;;7.87;6.25;;;;;;;17.35;75.39;100080.82;1675670;84;21603;-54
2022/07/22 04:49:07;;;;;;;7.83;6.27;;;;;;;17.43;75.50;100091.61;1669806;85;21221;-55
2022/07/22 04:52:15;;;;;;;7.45;6.00;;;;;;;17.52;75.50;100087.53;1673461;83;22184;-55
2022/07/22 04:55:23;;;;;;;8.80;6.60;;;;;;;17.61;75.52;100087.53;1689518;82;21888;-55
2022/07/22 04:58:35;;;;;;;9.78;6.50;;;;;;;17.65;75.40;100088.75;1658363;86;21291;-53
2022/07/22 05:01:42;;;;;;;8.63;5.78;;;;;;;17.69;75.35;100099.70;1657423;85;21791;-55
2022/07/22 05:04:51;;;;;;;7.12;5.97;;;;;;;17.67;75.20;100103.22;1679135;83;21212;-54
2022/07/22 05:07:59;;;;;;;11.22;6.37;;;;;;;17.64;75.22;100104.54;1685660;83;21946;-55
2022/07/22 05:11:05;;;;;;;6.47;5.87;;;;;;;17.67;75.24;100104.61;1685497;83;21244;-51
2022/07/22 05:14:13;;;;;;;6.87;5.85;;;;;;;17.74;75.26;100108.17;1681265;83;21654;-52
2022/07/22 05:17:24;;;;;;;8.55;5.72;;;;;;;17.82;75.33;100109.26;1699842;83;21200;-52
2022/07/22 05:20:33;;;;;;;11.18;6.40;;;;;;;17.88;75.30;100110.58;1670627;83;21268;-52
2022/07/22 05:23:42;;;;;;;8.45;6.30;;;;;;;17.95;75.26;100108.27;1680564;85;21776;-52
2022/07/22 05:26:51;;;;;;;8.38;6.22;;;;;;;18.05;75.29;100106.64;1684393;83;21813;-52
2022/07/22 05:29:59;;;;;;;6.85;5.67;;;;;;;18.15;75.21;100103.33;1667887;83;21458;-50
2022/07/22 05:33:08;;;;;;;10.93;6.67;;;;;;;18.20;75.09;100103.48;1697608;83;21212;-49
2022/07/22 05:36:26;;;;;;;8.10;6.75;;;;;;;18.19;75.01;100097.09;1639702;84;21332;-48
2022/07/22 05:39:32;;;;;;;8.70;7.90;;;;;;;18.19;74.97;100094.31;1675586;83;21288;-48
2022/07/22 05:42:39;;;;;;;8.98;7.55;;;;;;;18.20;74.93;100107.11;1682866;83;21781;-49
2022/07/22 05:45:49;;;;;;;9.33;7.75;;;;;;;18.19;74.87;100106.78;1658046;85;21190;-48
2022/07/22 05:48:57;;;;;;;9.28;7.15;;;;;;;18.20;74.90;100108.50;1641114;86;21222;-50
2022/07/22 05:52:07;;;;;;;11.75;8.65;;;;;;;18.25;74.99;100112.78;1685534;84;21240;-48
2022/07/22 05:55:18;;;;;;;9.23;8.20;;;;;;;18.39;75.16;100100.51;1681869;83;21280;-48
2022/07/22 05:58:50;;;;;;;9.60;7.87;;;;;;;18.50;75.09;100105.80;1613167;87;21808;-48
2022/07/22 06:02:03;;;;;;;9.30;8.08;;;;;;;18.56;75.07;100099.31;1619659;86;21652;-48
2022/07/22 06:05:11;;;;;;;7.87;7.08;;;;;;;18.61;75.03;100095.30;1621293;88;21258;-48
2022/07/22 06:08:23;;;;;;;8.55;7.65;;;;;;;18.68;75.07;100096.06;1596694;89;21310;-51
2022/07/22 06:11:32;;;;;;;8.33;6.85;;;;;;;18.80;75.11;100102.48;1604062;87;21251;-48
2022/07/22 06:14:42;;;;;;;8.03;6.65;;;;;;;18.97;75.14;100101.58;1623021;86;21230;-48
2022/07/22 06:17:51;;;;;;;8.58;6.20;;;;;;;19.13;75.13;100109.76;1624229;87;21351;-48
2022/07/22 06:20:59;;;;;;;7.67;6.72;;;;;;;19.23;75.01;100110.86;1625363;87;21218;-48
2022/07/22 06:24:08;;;;;;;8.95;6.97;;;;;;;19.31;75.04;100117.48;1626942;86;21223;-48
2022/07/22 06:27:23;;;;;;;7.08;6.37;;;;;;;19.40;75.00;100107.42;1630958;86;21449;-49
2022/07/22 06:30:34;;;;;;;11.48;7.80;;;;;;;19.43;74.84;100113.88;1610007;88;21257;-48
2022/07/22 06:33:42;;;;;;;7.53;6.47;;;;;;;19.37;74.73;100119.00;1626776;86;21258;-47
2022/07/22 06:36:52;;;;;;;8.80;6.62;;;;;;;19.38;74.87;100105.45;1633310;86;21235;-47
2022/07/22 06:40:02;;;;;;;9.90;6.53;;;;;;;19.53;75.05;100112.75;1635655;86;21852;-49
2022/07/22 06:43:13;;;;;;;7.50;6.22;;;;;;;19.63;75.00;100105.50;1635354;86;21772;-49
2022/07/22 06:46:24;;;;;;;9.58;6.35;;;;;;;19.71;75.00;100100.97;1607795;86;21253;-50
2022/07/22 06:49:31;;;;;;;6.28;5.67;;;;;;;19.83;75.00;100098.20;1600814;89;21214;-50
2022/07/22 06:52:42;;;;;;;7.55;6.30;;;;;;;19.92;74.91;100105.07;1624786;87;21258;-48
2022/07/22 06:55:51;;;;;;;9.20;6.70;;;;;;;20.01;74.94;100106.41;1631139;86;21258;-49
2022/07/22 06:59:00;;;;;;;7.33;6.00;;;;;;;20.10;74.96;100118.30;1628600;83;21289;-52
2022/07/22 07:02:13;;;;;;;7.80;5.37;;;;;;;20.12;74.80;100120.27;1673499;85;21257;-55
2022/07/22 07:05:24;;;;;;;6.53;5.83;;;;;;;20.15;74.80;100100.92;1678422;84;21237;-49
2022/07/22 07:08:34;;;;;;;7.90;5.72;;;;;;;20.32;75.08;100108.79;1672487;85;21217;-48
2022/07/22 07:11:44;;;;;;;6.37;5.25;;;;;;;20.45;75.00;100104.34;1673543;85;21375;-48
2022/07/22 07:15:07;;;;;;;9.63;5.97;;;;;;;20.48;74.86;100114.44;1673889;85;21280;-48
2022/07/22 07:18:18;;;;;;;9.90;6.35;;;;;;;20.53;74.88;100108.95;1671935;85;21221;-48
2022/07/22 07:21:29;;;;;;;8.25;6.12;;;;;;;20.59;74.94;100105.21;1672152;84;22067;-48
2022/07/22 07:24:37;;;;;;;8.03;5.85;;;;;;;20.59;74.68;100117.73;1672321;84;21237;-47
2022/07/22 07:27:46;;;;;;;10.13;6.22;;;;;;;20.48;74.46;100116.36;1658873;85;21252;-48
2022/07/22 07:31:06;;;;;;;7.67;5.75;;;;;;;20.41;74.46;100099.81;1663116;85;21296;-46
2022/07/22 07:34:21;;;;;;;7.62;5.47;;;;;;;20.48;74.64;100102.46;1673689;83;21311;-52
2022/07/22 07:37:29;;;;;;;7.65;6.00;;;;;;;20.48;74.54;100106.09;1676427;83;21240;-49
2022/07/22 07:41:04;;;;;;;10.32;6.17;;;;;;;20.53;74.70;100108.13;1686362;83;21253;-48
2022/07/22 07:44:19;;;;;;;6.83;4.90;;;;;;;20.64;74.77;100108.07;1658671;84;21306;-49
2022/07/22 07:47:31;;;;;;;7.03;5.20;;;;;;;20.72;74.69;100106.28;1671694;84;21808;-49
2022/07/22 07:50:38;;;;;;;6.92;5.55;;;;;;;20.82;74.72;100107.59;1673704;84;21232;-47
2022/07/22 07:53:45;;;;;;;9.05;5.20;;;;;;;20.97;74.84;100115.72;1672098;84;21234;-49
2022/07/22 07:56:54;;;;;;;8.33;5.47;;;;;;;20.95;74.56;100105.91;1676411;84;21240;-49
2022/07/22 08:00:04;;;;;;;7.12;5.20;;;;;;;20.98;74.59;100109.05;1665010;84;21210;-51
2022/07/22 08:03:13;;;;;;;5.90;5.30;;;;;;;21.08;74.62;100109.78;1677233;83;21792;-49
2022/07/22 08:06:21;;;;;;;6.87;4.80;;;;;;;21.12;74.49;100109.59;1666859;86;21354;-49
2022/07/22 08:09:32;;;;;;;5.80;5.05;;;;;;;21.11;74.38;100108.73;1668589;85;22040;-50
2022/07/22 08:12:55;;;;;;;5.83;4.65;;;;;;;21.18;74.49;100121.11;1677253;84;21216;-48
2022/07/22 08:16:15;;;;;;;10.15;4.97;;;;;;;21.24;74.46;100132.09;1671819;85;21237;-48
2022/07/22 08:19:23;;;;;;;7.72;4.50;;;;;;;21.20;74.32;100118.36;1651696;85;21261;-49
2022/07/22 08:22:36;;;;;;;5.42;4.80;;;;;;;21.14;74.30;100112.41;1668648;84;21758;-50
2022/07/22 08:25:42;;;;;;;6.65;4.70;;;;;;;21.24;74.53;100107.03;1628916;85;21287;-50
2022/07/22 08:28:56;;;;;;;5.50;4.90;;;;;;;21.37;74.53;100115.60;1627158;87;21801;-48
2022/07/22 08:32:06;;;;;;;;;;;;;;;21.40;74.46;100121.52;1642342;86;21264;-49
2022/07/22 08:35:15;;;;;;;9.30;5.25;;;;;;;21.45;74.40;100121.61;1673800;85;20234;-49
2022/07/22 08:38:23;;;;;;;4.78;4.28;;;;;;;21.58;74.43;100121.82;1634970;84;21221;-50
2022/07/22 08:41:36;;;;;;;6.60;4.17;;;;;;;21.64;74.39;100127.77;1671571;85;21308;-50
2022/07/22 08:44:41;;;;;;;6.60;4.42;;;;;;;21.70;74.33;100133.17;1688419;83;21372;-50
2022/07/22 08:47:50;;;;;;;5.58;4.22;;;;;;;21.90;74.35;100123.75;1679152;83;21289;-50
2022/07/22 08:51:00;;;;;;;4.90;4.37;;;;;;;22.03;74.30;100127.59;1658336;85;21174;-54
2022/07/22 08:54:17;;;;;;;4.65;4.17;;;;;;;22.04;73.96;100132.63;1683408;83;21791;-52
2022/07/22 08:57:26;;;;;;;5.03;4.42;;;;;;;22.00;73.72;100129.49;1683599;84;21271;-51
2022/07/22 09:00:45;;;;;;;5.78;4.30;;;;;;;22.09;73.80;100122.91;1659666;84;21339;-51
2022/07/22 09:04:04;;;;;;;6.60;4.00;;;;;;;22.04;73.52;100148.77;1653945;86;21235;-48
2022/07/22 09:07:13;;;;;;;7.22;4.15;;;;;;;21.90;73.40;100125.15;1665475;84;21268;-56
2022/07/22 09:10:26;;;;;;;5.25;3.75;;;;;;;21.90;73.55;100116.78;1687649;83;21225;-56
2022/07/22 09:13:59;;;;;;;10.23;4.12;;;;;;;22.03;73.75;100130.91;1692172;83;21387;-55
2022/07/22 09:17:00;;;;;;;6.50;3.67;;;;;;;22.13;73.69;100120.77;1660598;83;21231;-56
2022/07/22 09:20:07;;;;;;;4.30;3.50;;;;;;;22.14;73.61;100122.45;1690006;84;22038;-55
2022/07/22 09:23:02;;;;;;;6.30;3.40;;;;;;;22.35;73.70;100131.94;1710009;84;21220;-56
2022/07/22 09:25:51;;;;;;;6.62;3.33;;;;;;;22.42;73.43;100144.30;1712756;84;21371;-54
2022/07/22 09:28:56;;;;;;;3.58;3.27;;;;;;;22.41;73.19;100120.28;1664318;84;21545;-55
2022/07/22 09:32:13;;;;;;;4.42;3.33;;;;;;;22.32;73.08;100119.05;1657302;84;21757;-52
2022/07/22 09:35:26;;;;;;;5.12;3.25;;;;;;;22.42;73.27;100129.78;1655257;85;21726;-55
2022/07/22 09:38:35;;;;;;;5.83;3.42;;;;;;;22.53;73.20;100118.25;1683742;85;21352;-57
2022/07/22 09:41:48;;;;;;;7.40;3.50;;;;;;;22.65;73.20;100125.38;1675176;84;21220;-55
2022/07/22 09:44:55;;;;;;;4.10;3.10;;;;;;;22.74;73.10;100129.97;1685987;82;21247;-56
2022/07/22 09:48:08;;;;;;;3.40;2.40;;;;;;;22.73;72.87;100117.95;1684791;85;21268;-57
2022/07/22 09:51:28;;;;;;;4.28;2.20;;;;;;;22.77;72.81;100121.06;1661404;85;21785;-57
2022/07/22 09:54:48;;;;;;;3.60;2.67;;;;;;;22.94;72.89;100120.42;1682849;85;21583;-59
2022/07/22 09:57:59;;;;;;;2.90;2.37;;;;;;;23.20;72.82;100147.48;1662740;84;21757;-57
2022/07/22 10:01:21;;;;;;;3.27;2.95;;;;;;;23.31;72.44;100128.36;1676968;85;21369;-57
2022/07/22 10:04:26;;;;;;;4.58;2.50;;;;;;;23.28;72.11;100144.25;1666287;85;21276;-58
2022/07/22 10:07:35;;;;;;;3.55;2.27;;;;;;;23.33;72.19;100134.53;1681270;85;21296;-56
2022/07/22 10:10:44;;;;;;;2.87;2.20;;;;;;;23.47;72.11;100128.25;1684890;85;21209;-58
2022/07/22 10:13:51;;;;;;;6.85;2.60;;;;;;;23.64;72.03;100133.71;1683789;85;21793;-56
2022/07/22 10:17:00;;;;;;;3.40;2.25;;;;;;;23.84;71.88;100149.24;1683398;85;21256;-56
2022/07/22 10:20:09;;;;;;;5.90;2.52;;;;;;;23.95;71.58;100135.63;1669074;84;21216;-56
2022/07/22 10:23:20;;;;;;;6.20;2.50;;;;;;;24.07;71.50;100130.69;1630460;88;21256;-58
2022/07/22 10:26:29;;;;;;;5.12;2.45;;;;;;;24.20;71.30;100134.41;1673910;85;21213;-57
2022/07/22 10:29:38;;;;;;;2.70;2.08;;;;;;;24.33;71.08;100143.73;1667648;85;21253;-58
2022/07/22 10:32:40;;;;;;;2.85;2.10;;;;;;;24.25;70.53;100144.78;1669104;85;21249;-59
2022/07/22 10:36:09;;;;;;;3.10;2.00;;;;;;;24.21;70.35;100150.11;1680038;85;21245;-55
2022/07/22 10:39:25;;;;;;;4.95;1.90;;;;;;;24.13;70.22;100140.83;1675035;85;21738;-54
2022/07/22 10:42:36;;;;;;;3.92;2.17;;;;;;;24.00;70.00;100160.86;1681747;85;21245;-55
2022/07/22 10:46:07;;;;;;;5.28;2.20;;;;;;;23.95;70.01;100146.80;1691328;83;21204;-55
2022/07/22 10:49:19;;;;;;;5.35;2.30;;;;;;;23.92;69.95;100134.77;1651533;83;21309;-57
2022/07/22 10:52:26;;;;;;;5.55;2.17;;;;;;;23.96;69.96;100144.28;1666011;84;21223;-58
2022/07/22 10:55:35;;;;;;;3.35;2.22;;;;;;;24.03;69.89;100141.30;1651765;86;22066;-57
2022/07/22 10:58:47;;;;;;;4.28;2.30;;;;;;;24.06;69.79;100147.20;1653958;86;21942;-58
2022/07/22 11:02:00;;;;;;;2.70;2.10;;;;;;;24.05;69.67;100151.12;1676857;84;21874;-58
2022/07/22 11:05:09;;;;;;;6.08;2.15;;;;;;;24.04;69.63;100146.61;1658579;84;21864;-58
2022/07/22 11:08:25;;;;;;;3.37;2.08;;;;;;;24.00;69.54;100154.42;1630830;86;21225;-57
2022/07/22 11:12:00;;;;;;;7.17;2.00;;;;;;;23.84;69.35;100152.03;1686728;83;21742;-58
2022/07/22 11:15:11;;;;;;;4.62;2.20;;;;;;;23.82;69.40;100162.64;1686897;83;21240;-58
2022/07/22 11:18:19;;;;;;;3.58;2.00;;;;;;;23.82;69.44;100156.22;1682416;83;21238;-57
2022/07/22 11:21:32;;;;;;;4.22;2.30;;;;;;;23.86;69.29;100164.35;1683347;83;21302;-55
2022/07/22 11:24:39;;;;;;;3.57;1.90;;;;;;;23.81;69.15;100151.17;1685095;84;21246;-56
2022/07/22 11:28:01;;;;;;;3.50;2.20;;;;;;;23.82;69.22;100148.66;1683192;84;21265;-56
2022/07/22 11:31:34;;;;;;;3.37;2.22;;;;;;;23.84;69.07;100156.23;1666990;83;21265;-56
2022/07/22 11:34:45;;;;;;;;;;;;;;;23.69;68.97;100149.11;1648922;86;21292;-58
2022/07/22 11:37:54;;;;;;;3.83;1.90;;;;;;;23.52;68.82;100147.00;1654905;86;20573;-58
2022/07/22 11:41:00;;;;;;;4.50;2.92;;;;;;;23.28;68.80;100169.39;1608764;87;21245;-63
2022/07/22 11:44:12;;;;;;;5.80;2.60;;;;;;;23.05;68.86;100176.66;1654202;86;21826;-55
2022/07/22 11:47:23;;;;;;;3.80;2.37;;;;;;;22.67;68.83;100183.73;1639405;86;21222;-56
2022/07/22 11:50:41;;;;;;;6.22;2.90;;;;;;;22.13;68.71;100173.75;1651393;86;21766;-58
2022/07/22 11:53:50;;;;;;;4.92;3.30;;;;;;;21.74;68.93;100178.92;1654812;86;21222;-59
2022/07/22 11:57:03;;;;;;;5.67;2.90;;;;;;;21.51;69.14;100181.88;1655735;86;21396;-59
2022/07/22 12:00:19;;;;;;;5.50;3.10;;;;;;;21.43;69.37;100165.58;1655859;86;21226;-58
2022/07/22 12:03:26;;;;;;;6.10;2.70;;;;;;;21.50;69.51;100171.81;1647424;86;21277;-59
2022/07/22 12:06:39;;;;;;;5.72;2.90;;;;;;;21.57;69.49;100166.94;1644061;86;21293;-58
2022/07/22 12:09:45;;;;;;;3.67;3.00;;;;;;;21.61;69.50;100166.71;1634051;86;21230;-59
2022/07/22 12:12:54;;;;;;;5.05;3.00;;;;;;;21.68;69.61;100165.16;1628417;88;22117;-59
2022/07/22 12:16:02;;;;;;;7.03;2.98;;;;;;;21.71;69.62;100157.14;1649765;86;21763;-59
2022/07/22 12:19:14;;;;;;;3.70;2.90;;;;;;;21.83;69.92;100152.91;1654461;86;21242;-58
2022/07/22 12:22:30;;;;;;;5.17;3.12;;;;;;;22.06;70.27;100140.16;1654074;86;21248;-59
2022/07/22 12:25:40;;;;;;;6.30;2.80;;;;;;;22.36;70.31;100139.77;1641590;86;21308;-58
2022/07/22 12:28:50;;;;;;;4.67;2.65;;;;;;;22.55;70.22;100139.78;1645190;86;21557;-58
2022/07/22 12:32:09;;;;;;;4.03;2.35;;;;;;;22.61;70.08;100147.10;1640686;86;21213;-58
2022/07/22 12:35:19;;;;;;;4.28;2.55;;;;;;;22.53;69.91;100145.62;1649827;86;21237;-58
2022/07/22 12:38:27;;;;;;;4.35;2.20;;;;;;;22.39;69.74;100155.98;1623358;86;21225;-59
2022/07/22 12:41:37;;;;;;;6.28;2.50;;;;;;;22.21;69.68;100166.31;1654204;86;21809;-56
2022/07/22 12:44:43;;;;;;;3.25;2.40;;;;;;;22.14;69.64;100158.70;1637690;86;21775;-56
2022/07/22 12:48:00;;;;;;;2.60;2.05;;;;;;;22.09;69.52;100152.19;1650257;86;21706;-55
2022/07/22 12:51:05;;;;;;;4.97;2.70;;;;;;;22.08;69.54;100143.00;1654615;85;21250;-56
2022/07/22 12:54:13;;;;;;;3.90;2.30;;;;;;;22.10;69.50;100142.73;1655448;86;21242;-56
2022/07/22 12:57:25;;;;;;;3.50;2.12;;;;;;;22.09;69.46;100139.64;1628776;87;21317;-59
2022/07/22 13:00:35;;;;;;;3.95;2.62;;;;;;;22.11;69.59;100146.66;1628065;87;21343;-57
2022/07/22 13:03:46;;;;;;;4.25;2.60;;;;;;;22.19;69.72;100143.44;1635921;85;21242;-58
2022/07/22 13:06:57;;;;;;;5.37;3.15;;;;;;;22.31;69.83;100135.51;1656594;85;21612;-58
2022/07/22 13:10:05;;;;;;;3.17;2.20;;;;;;;22.53;69.98;100144.22;1652571;86;21787;-58
2022/07/22 13:13:15;;;;;;;2.58;2.20;;;;;;;22.79;70.03;100132.79;1653857;86;21265;-59
2022/07/22 13:16:24;;;;;;;5.20;2.60;;;;;;;23.07;70.12;100129.20;1632290;86;21225;-59
2022/07/22 13:19:38;;;;;;;4.87;2.10;;;;;;;23.33;70.02;100127.55;1624238;87;21806;-59
2022/07/22 13:22:46;;;;;;;2.75;2.35;;;;;;;23.43;69.85;100123.46;1629641;87;21975;-57
2022/07/22 13:25:55;;;;;;;3.90;2.05;;;;;;;23.48;69.69;100129.92;1614535;87;21288;-59
2022/07/22 13:29:01;;;;;;;2.83;2.00;;;;;;;23.54;69.55;100137.81;1648708;86;21680;-59
2022/07/22 13:32:15;;;;;;;3.12;1.87;;;;;;;23.58;69.31;100158.52;1628775;86;21249;-57
2022/07/22 13:35:25;;;;;;;3.45;1.80;;;;;;;23.50;69.16;100141.69;1621891;87;21274;-59
2022/07/22 13:38:32;;;;;;;4.40;2.37;;;;;;;23.37;69.01;100142.11;1653840;86;21216;-58
2022/07/22 13:41:38;;;;;;;4.42;2.20;;;;;;;23.22;68.94;100141.09;1637187;87;21808;-58
2022/07/22 13:44:46;;;;;;;8.08;2.37;;;;;;;23.08;68.89;100139.83;1648773;84;21787;-60
2022/07/22 13:47:53;;;;;;;4.80;1.92;;;;;;;22.99;68.96;100141.42;1659870;84;21902;-59
2022/07/22 13:51:04;;;;;;;3.47;2.00;;;;;;;23.01;69.08;100136.39;1658587;86;21265;-59
2022/07/22 13:54:19;;;;;;;4.35;2.40;;;;;;;23.08;69.11;100141.23;1652196;86;21245;-58
2022/07/22 13:57:27;;;;;;;3.20;1.95;;;;;;;23.04;68.99;100132.53;1660403;86;21954;-57
2022/07/22 14:00:35;;;;;;;2.30;2.00;;;;;;;23.07;69.07;100132.57;1650645;85;21273;-59
2022/07/22 14:03:43;;;;;;;5.03;2.12;;;;;;;23.22;69.23;100127.12;1664148;86;21235;-58
2022/07/22 14:06:52;;;;;;;7.97;2.45;;;;;;;23.42;69.15;100127.38;1657036;84;21271;-57
2022/07/22 14:10:05;;;;;;;3.55;1.70;;;;;;;23.44;68.84;100132.97;1655269;86;21635;-55
2022/07/22 14:13:15;;;;;;;3.35;1.77;;;;;;;23.35;68.67;100133.72;1649466;85;21229;-58
2022/07/22 14:16:36;;;;;;;3.72;2.12;;;;;;;23.20;68.58;100143.30;1659411;86;21273;-57
2022/07/22 14:19:47;;;;;;;4.00;2.10;;;;;;;23.04;68.44;100138.69;1598846;89;21306;-56
2022/07/22 14:23:05;;;;;;;2.72;1.72;;;;;;;22.87;68.45;100131.78;1661309;86;21354;-58
2022/07/22 14:26:18;;;;;;;2.20;1.80;;;;;;;22.77;68.47;100135.02;1634309;87;21261;-56
2022/07/22 14:29:25;;;;;;;2.77;2.10;;;;;;;22.71;68.49;100138.83;1636619;87;21249;-55
2022/07/22 14:32:35;;;;;;;4.95;1.95;;;;;;;22.64;68.46;100127.89;1636036;87;21269;-54
2022/07/22 14:35:47;;;;;;;2.27;1.85;;;;;;;22.59;68.52;100136.20;1632504;86;21854;-55
2022/07/22 14:38:55;;;;;;;3.67;2.08;;;;;;;22.74;68.65;100139.73;1637279;86;21245;-55
2022/07/22 14:42:03;;;;;;;5.75;1.95;;;;;;;22.93;68.61;100132.13;1637686;87;21253;-55
2022/07/22 14:45:13;;;;;;;5.55;2.33;;;;;;;23.05;68.50;100138.42;1638556;87;21262;-55